sensor_id;sensor_type;location;lat;lon;timestamp;P1;durP1;ratioP1;P2;durP2;ratioP2
50092;SDS011;35974;47.752;10.290;2022-09-25T00:00:49;14.70;;;10.80;;
50092;SDS011;35974;47.752;10.290;2022-09-25T00:03:17;14.52;;;11.55;;
50092;SDS011;35974;47.752;10.290;2022-09-25T00:05:44;13.75;;;9.98;;
50092;SDS011;35974;47.752;10.290;2022-09-25T00:08:12;14.93;;;10.93;;
50092;SDS011;35974;47.752;10.290;2022-09-25T00:10:43;13.98;;;10.68;;
50092;SDS011;35974;47.752;10.290;2022-09-25T00:13:13;12.45;;;10.15;;
50092;SDS011;35974;47.752;10.290;2022-09-25T00:15:44;14.60;;;10.80;;
50092;SDS011;35974;47.752;10.290;2022-09-25T00:18:12;13.77;;;10.27;;
50092;SDS011;35974;47.752;10.290;2022-09-25T00:20:39;13.35;;;10.27;;
50092;SDS011;35974;47.752;10.290;2022-09-25T00:23:05;17.52;;;11.45;;
50092;SDS011;35974;47.752;10.290;2022-09-25T00:25:32;13.60;;;10.30;;
50092;SDS011;35974;47.752;10.290;2022-09-25T00:27:58;14.70;;;10.48;;
50092;SDS011;35974;47.752;10.290;2022-09-25T00:30:28;14.57;;;10.57;;
50092;SDS011;35974;47.752;10.290;2022-09-25T00:32:55;14.00;;;10.60;;
50092;SDS011;35974;47.752;10.290;2022-09-25T00:35:21;13.63;;;10.88;;
50092;SDS011;35974;47.752;10.290;2022-09-25T00:37:47;14.82;;;9.65;;
50092;SDS011;35974;47.752;10.290;2022-09-25T00:40:14;14.23;;;10.25;;
50092;SDS011;35974;47.752;10.290;2022-09-25T00:42:41;13.90;;;10.18;;
50092;SDS011;35974;47.752;10.290;2022-09-25T00:45:14;13.65;;;10.38;;
50092;SDS011;35974;47.752;10.290;2022-09-25T00:47:50;14.02;;;9.77;;
50092;SDS011;35974;47.752;10.290;2022-09-25T00:52:52;13.05;;;9.70;;
50092;SDS011;35974;47.752;10.290;2022-09-25T00:55:21;15.73;;;10.43;;
50092;SDS011;35974;47.752;10.290;2022-09-25T00:57:51;13.32;;;9.35;;
50092;SDS011;35974;47.752;10.290;2022-09-25T01:00:21;18.33;;;9.93;;
50092;SDS011;35974;47.752;10.290;2022-09-25T01:02:50;12.63;;;9.05;;
50092;SDS011;35974;47.752;10.290;2022-09-25T01:05:24;11.40;;;8.70;;
50092;SDS011;35974;47.752;10.290;2022-09-25T01:07:53;11.90;;;8.85;;
50092;SDS011;35974;47.752;10.290;2022-09-25T01:10:22;24.10;;;8.25;;
50092;SDS011;35974;47.752;10.290;2022-09-25T01:12:50;8.27;;;6.85;;
50092;SDS011;35974;47.752;10.290;2022-09-25T01:15:22;10.07;;;7.63;;
50092;SDS011;35974;47.752;10.290;2022-09-25T01:17:59;10.48;;;7.85;;
50092;SDS011;35974;47.752;10.290;2022-09-25T01:29:01;11.15;;;7.78;;
50092;SDS011;35974;47.752;10.290;2022-09-25T01:31:46;8.90;;;7.32;;
50092;SDS011;35974;47.752;10.290;2022-09-25T01:40:36;9.38;;;7.13;;
50092;SDS011;35974;47.752;10.290;2022-09-25T01:43:15;7.90;;;6.18;;
50092;SDS011;35974;47.752;10.290;2022-09-25T01:45:52;8.25;;;6.20;;
50092;SDS011;35974;47.752;10.290;2022-09-25T01:48:32;8.48;;;5.82;;
50092;SDS011;35974;47.752;10.290;2022-09-25T01:51:03;7.55;;;5.35;;
50092;SDS011;35974;47.752;10.290;2022-09-25T01:53:35;7.22;;;4.60;;
50092;SDS011;35974;47.752;10.290;2022-09-25T01:58:57;7.68;;;5.13;;
50092;SDS011;35974;47.752;10.290;2022-09-25T02:01:31;6.78;;;5.00;;
50092;SDS011;35974;47.752;10.290;2022-09-25T02:04:13;5.28;;;4.30;;
50092;SDS011;35974;47.752;10.290;2022-09-25T02:06:44;5.43;;;4.28;;
50092;SDS011;35974;47.752;10.290;2022-09-25T02:09:16;5.47;;;4.82;;
50092;SDS011;35974;47.752;10.290;2022-09-25T02:11:48;8.18;;;5.00;;
50092;SDS011;35974;47.752;10.290;2022-09-25T02:14:23;6.57;;;5.00;;
50092;SDS011;35974;47.752;10.290;2022-09-25T02:16:57;6.47;;;5.30;;
50092;SDS011;35974;47.752;10.290;2022-09-25T02:19:23;5.70;;;4.68;;
50092;SDS011;35974;47.752;10.290;2022-09-25T02:22:14;5.93;;;4.90;;
50092;SDS011;35974;47.752;10.290;2022-09-25T02:24:46;6.63;;;5.25;;
50092;SDS011;35974;47.752;10.290;2022-09-25T02:27:24;6.13;;;5.20;;
50092;SDS011;35974;47.752;10.290;2022-09-25T02:29:54;7.60;;;5.32;;
50092;SDS011;35974;47.752;10.290;2022-09-25T02:32:23;7.53;;;4.88;;
50092;SDS011;35974;47.752;10.290;2022-09-25T02:34:54;6.20;;;4.95;;
50092;SDS011;35974;47.752;10.290;2022-09-25T02:37:21;5.32;;;4.82;;
50092;SDS011;35974;47.752;10.290;2022-09-25T02:39:50;5.88;;;4.95;;
50092;SDS011;35974;47.752;10.290;2022-09-25T02:48:27;8.85;;;5.00;;
50092;SDS011;35974;47.752;10.290;2022-09-25T02:51:11;6.30;;;4.72;;
50092;SDS011;35974;47.752;10.290;2022-09-25T02:53:55;6.13;;;5.22;;
50092;SDS011;35974;47.752;10.290;2022-09-25T03:02:05;5.15;;;4.20;;
50092;SDS011;35974;47.752;10.290;2022-09-25T03:04:32;5.93;;;4.90;;
50092;SDS011;35974;47.752;10.290;2022-09-25T03:07:01;6.90;;;4.72;;
50092;SDS011;35974;47.752;10.290;2022-09-25T03:09:29;7.70;;;4.80;;
50092;SDS011;35974;47.752;10.290;2022-09-25T03:12:01;5.85;;;4.88;;
50092;SDS011;35974;47.752;10.290;2022-09-25T03:14:30;8.63;;;5.05;;
50092;SDS011;35974;47.752;10.290;2022-09-25T03:16:58;8.75;;;5.65;;
50092;SDS011;35974;47.752;10.290;2022-09-25T03:19:40;7.65;;;5.75;;
50092;SDS011;35974;47.752;10.290;2022-09-25T03:22:06;6.30;;;4.97;;
50092;SDS011;35974;47.752;10.290;2022-09-25T03:24:32;8.10;;;5.15;;
50092;SDS011;35974;47.752;10.290;2022-09-25T03:26:59;7.05;;;4.93;;
50092;SDS011;35974;47.752;10.290;2022-09-25T03:29:25;6.43;;;5.05;;
50092;SDS011;35974;47.752;10.290;2022-09-25T03:31:52;6.57;;;5.22;;
50092;SDS011;35974;47.752;10.290;2022-09-25T03:34:19;5.90;;;4.85;;
50092;SDS011;35974;47.752;10.290;2022-09-25T03:36:46;6.82;;;5.20;;
50092;SDS011;35974;47.752;10.290;2022-09-25T03:39:15;6.57;;;4.97;;
50092;SDS011;35974;47.752;10.290;2022-09-25T03:41:45;7.20;;;5.30;;
50092;SDS011;35974;47.752;10.290;2022-09-25T03:44:12;7.75;;;5.40;;
50092;SDS011;35974;47.752;10.290;2022-09-25T03:46:39;7.50;;;5.70;;
50092;SDS011;35974;47.752;10.290;2022-09-25T03:49:06;6.78;;;4.82;;
50092;SDS011;35974;47.752;10.290;2022-09-25T03:51:33;7.60;;;5.40;;
50092;SDS011;35974;47.752;10.290;2022-09-25T03:54:00;6.15;;;5.03;;
50092;SDS011;35974;47.752;10.290;2022-09-25T03:56:29;6.10;;;4.93;;
50092;SDS011;35974;47.752;10.290;2022-09-25T03:58:56;6.30;;;4.70;;
50092;SDS011;35974;47.752;10.290;2022-09-25T04:01:23;6.40;;;5.18;;
50092;SDS011;35974;47.752;10.290;2022-09-25T04:03:51;6.35;;;5.10;;
50092;SDS011;35974;47.752;10.290;2022-09-25T04:06:18;12.15;;;7.50;;
50092;SDS011;35974;47.752;10.290;2022-09-25T04:08:49;6.97;;;5.18;;
50092;SDS011;35974;47.752;10.290;2022-09-25T04:11:16;6.25;;;4.80;;
50092;SDS011;35974;47.752;10.290;2022-09-25T04:13:44;7.18;;;4.90;;
50092;SDS011;35974;47.752;10.290;2022-09-25T04:16:12;5.03;;;4.10;;
50092;SDS011;35974;47.752;10.290;2022-09-25T04:18:39;5.47;;;4.50;;
50092;SDS011;35974;47.752;10.290;2022-09-25T04:21:08;5.57;;;4.57;;
50092;SDS011;35974;47.752;10.290;2022-09-25T04:23:36;7.53;;;4.82;;
50092;SDS011;35974;47.752;10.290;2022-09-25T04:26:03;6.65;;;4.93;;
50092;SDS011;35974;47.752;10.290;2022-09-25T04:28:30;5.65;;;4.15;;
50092;SDS011;35974;47.752;10.290;2022-09-25T04:30:58;8.68;;;4.80;;
50092;SDS011;35974;47.752;10.290;2022-09-25T04:33:25;4.70;;;4.13;;
50092;SDS011;35974;47.752;10.290;2022-09-25T04:36:10;4.93;;;4.13;;
50092;SDS011;35974;47.752;10.290;2022-09-25T04:38:37;5.53;;;3.90;;
50092;SDS011;35974;47.752;10.290;2022-09-25T04:41:03;4.72;;;4.05;;
50092;SDS011;35974;47.752;10.290;2022-09-25T04:43:31;5.93;;;4.10;;
50092;SDS011;35974;47.752;10.290;2022-09-25T04:46:01;4.57;;;3.70;;
50092;SDS011;35974;47.752;10.290;2022-09-25T04:48:32;4.22;;;3.58;;
50092;SDS011;35974;47.752;10.290;2022-09-25T04:50:59;5.30;;;3.63;;
50092;SDS011;35974;47.752;10.290;2022-09-25T04:53:26;5.53;;;3.83;;
50092;SDS011;35974;47.752;10.290;2022-09-25T04:56:01;6.13;;;3.90;;
50092;SDS011;35974;47.752;10.290;2022-09-25T04:58:42;4.65;;;3.90;;
50092;SDS011;35974;47.752;10.290;2022-09-25T05:01:10;4.55;;;3.53;;
50092;SDS011;35974;47.752;10.290;2022-09-25T05:03:36;5.22;;;3.67;;
50092;SDS011;35974;47.752;10.290;2022-09-25T05:06:03;5.80;;;4.15;;
50092;SDS011;35974;47.752;10.290;2022-09-25T05:08:29;4.78;;;3.95;;
50092;SDS011;35974;47.752;10.290;2022-09-25T05:10:56;5.50;;;4.20;;
50092;SDS011;35974;47.752;10.290;2022-09-25T05:13:22;4.57;;;3.88;;
50092;SDS011;35974;47.752;10.290;2022-09-25T05:15:49;7.97;;;4.82;;
50092;SDS011;35974;47.752;10.290;2022-09-25T05:18:20;6.25;;;4.90;;
50092;SDS011;35974;47.752;10.290;2022-09-25T05:20:48;6.90;;;4.63;;
50092;SDS011;35974;47.752;10.290;2022-09-25T05:23:17;5.65;;;4.50;;
50092;SDS011;35974;47.752;10.290;2022-09-25T05:25:49;5.75;;;4.50;;
50092;SDS011;35974;47.752;10.290;2022-09-25T05:28:26;5.70;;;4.28;;
50092;SDS011;35974;47.752;10.290;2022-09-25T05:31:00;6.32;;;4.10;;
50092;SDS011;35974;47.752;10.290;2022-09-25T05:33:29;5.72;;;4.50;;
50092;SDS011;35974;47.752;10.290;2022-09-25T05:36:03;4.80;;;4.22;;
50092;SDS011;35974;47.752;10.290;2022-09-25T05:38:32;6.78;;;4.18;;
50092;SDS011;35974;47.752;10.290;2022-09-25T05:41:09;7.53;;;4.80;;
50092;SDS011;35974;47.752;10.290;2022-09-25T05:43:40;6.07;;;4.68;;
50092;SDS011;35974;47.752;10.290;2022-09-25T05:46:14;7.07;;;3.95;;
50092;SDS011;35974;47.752;10.290;2022-09-25T05:48:41;6.00;;;4.05;;
50092;SDS011;35974;47.752;10.290;2022-09-25T05:51:07;6.28;;;4.80;;
50092;SDS011;35974;47.752;10.290;2022-09-25T05:53:39;9.05;;;6.45;;
50092;SDS011;35974;47.752;10.290;2022-09-25T05:56:06;7.15;;;5.72;;
50092;SDS011;35974;47.752;10.290;2022-09-25T05:58:33;7.13;;;5.60;;
50092;SDS011;35974;47.752;10.290;2022-09-25T06:01:03;7.10;;;5.40;;
50092;SDS011;35974;47.752;10.290;2022-09-25T06:03:31;7.25;;;5.55;;
50092;SDS011;35974;47.752;10.290;2022-09-25T06:05:58;6.63;;;5.80;;
50092;SDS011;35974;47.752;10.290;2022-09-25T06:08:25;6.85;;;5.38;;
50092;SDS011;35974;47.752;10.290;2022-09-25T06:10:52;6.43;;;4.63;;
50092;SDS011;35974;47.752;10.290;2022-09-25T06:13:21;10.63;;;5.15;;
50092;SDS011;35974;47.752;10.290;2022-09-25T06:15:50;5.38;;;4.55;;
50092;SDS011;35974;47.752;10.290;2022-09-25T06:18:33;6.03;;;4.65;;
50092;SDS011;35974;47.752;10.290;2022-09-25T06:21:00;5.60;;;4.43;;
50092;SDS011;35974;47.752;10.290;2022-09-25T06:23:29;5.18;;;4.53;;
50092;SDS011;35974;47.752;10.290;2022-09-25T06:26:04;5.80;;;4.80;;
50092;SDS011;35974;47.752;10.290;2022-09-25T06:28:31;5.78;;;4.95;;
50092;SDS011;35974;47.752;10.290;2022-09-25T06:31:01;6.53;;;4.40;;
50092;SDS011;35974;47.752;10.290;2022-09-25T06:33:32;6.25;;;4.70;;
50092;SDS011;35974;47.752;10.290;2022-09-25T06:35:59;8.70;;;4.63;;
50092;SDS011;35974;47.752;10.290;2022-09-25T06:38:26;4.82;;;4.22;;
50092;SDS011;35974;47.752;10.290;2022-09-25T06:40:52;5.07;;;4.45;;
50092;SDS011;35974;47.752;10.290;2022-09-25T06:43:25;6.88;;;4.63;;
50092;SDS011;35974;47.752;10.290;2022-09-25T06:45:57;5.43;;;4.32;;
50092;SDS011;35974;47.752;10.290;2022-09-25T06:48:25;6.80;;;5.47;;
50092;SDS011;35974;47.752;10.290;2022-09-25T06:50:52;7.22;;;5.78;;
50092;SDS011;35974;47.752;10.290;2022-09-25T06:53:22;7.47;;;6.13;;
50092;SDS011;35974;47.752;10.290;2022-09-25T06:55:54;7.63;;;5.57;;
50092;SDS011;35974;47.752;10.290;2022-09-25T06:58:22;6.55;;;5.57;;
50092;SDS011;35974;47.752;10.290;2022-09-25T07:00:53;7.53;;;6.05;;
50092;SDS011;35974;47.752;10.290;2022-09-25T07:03:21;8.27;;;6.57;;
50092;SDS011;35974;47.752;10.290;2022-09-25T07:06:07;8.45;;;6.55;;
50092;SDS011;35974;47.752;10.290;2022-09-25T07:08:36;8.15;;;5.97;;
50092;SDS011;35974;47.752;10.290;2022-09-25T07:11:03;7.95;;;5.60;;
50092;SDS011;35974;47.752;10.290;2022-09-25T07:13:31;7.45;;;5.65;;
50092;SDS011;35974;47.752;10.290;2022-09-25T07:16:00;6.40;;;5.40;;
50092;SDS011;35974;47.752;10.290;2022-09-25T07:18:32;7.18;;;5.78;;
50092;SDS011;35974;47.752;10.290;2022-09-25T07:21:18;8.90;;;5.70;;
50092;SDS011;35974;47.752;10.290;2022-09-25T07:23:48;6.03;;;4.93;;
50092;SDS011;35974;47.752;10.290;2022-09-25T07:28:51;9.05;;;6.78;;
50092;SDS011;35974;47.752;10.290;2022-09-25T07:31:21;8.07;;;5.78;;
50092;SDS011;35974;47.752;10.290;2022-09-25T07:34:03;6.90;;;4.90;;
50092;SDS011;35974;47.752;10.290;2022-09-25T07:36:35;5.93;;;4.60;;
50092;SDS011;35974;47.752;10.290;2022-09-25T07:39:09;4.90;;;3.80;;
50092;SDS011;35974;47.752;10.290;2022-09-25T07:41:52;5.93;;;4.45;;
50092;SDS011;35974;47.752;10.290;2022-09-25T07:44:19;5.78;;;4.38;;
50092;SDS011;35974;47.752;10.290;2022-09-25T07:49:32;5.82;;;3.70;;
50092;SDS011;35974;47.752;10.290;2022-09-25T07:52:02;4.28;;;3.83;;
50092;SDS011;35974;47.752;10.290;2022-09-25T07:54:30;5.80;;;4.28;;
50092;SDS011;35974;47.752;10.290;2022-09-25T07:56:58;5.40;;;4.03;;
50092;SDS011;35974;47.752;10.290;2022-09-25T07:59:24;4.43;;;3.92;;
50092;SDS011;35974;47.752;10.290;2022-09-25T08:01:50;5.35;;;4.30;;
50092;SDS011;35974;47.752;10.290;2022-09-25T08:04:20;5.82;;;4.13;;
50092;SDS011;35974;47.752;10.290;2022-09-25T08:06:47;5.72;;;3.90;;
50092;SDS011;35974;47.752;10.290;2022-09-25T08:09:13;4.85;;;4.35;;
50092;SDS011;35974;47.752;10.290;2022-09-25T08:11:39;4.28;;;3.63;;
50092;SDS011;35974;47.752;10.290;2022-09-25T08:14:06;4.00;;;3.40;;
50092;SDS011;35974;47.752;10.290;2022-09-25T08:16:32;5.78;;;4.15;;
50092;SDS011;35974;47.752;10.290;2022-09-25T08:19:03;5.00;;;4.05;;
50092;SDS011;35974;47.752;10.290;2022-09-25T08:21:36;5.35;;;4.45;;
50092;SDS011;35974;47.752;10.290;2022-09-25T08:24:03;6.15;;;4.88;;
50092;SDS011;35974;47.752;10.290;2022-09-25T08:26:29;6.45;;;4.50;;
50092;SDS011;35974;47.752;10.290;2022-09-25T08:28:56;5.90;;;4.70;;
50092;SDS011;35974;47.752;10.290;2022-09-25T08:31:24;6.25;;;4.40;;
50092;SDS011;35974;47.752;10.290;2022-09-25T08:33:51;6.82;;;5.10;;
50092;SDS011;35974;47.752;10.290;2022-09-25T08:36:19;7.70;;;5.60;;
50092;SDS011;35974;47.752;10.290;2022-09-25T08:38:47;8.45;;;5.57;;
50092;SDS011;35974;47.752;10.290;2022-09-25T08:41:22;7.35;;;6.30;;
50092;SDS011;35974;47.752;10.290;2022-09-25T08:46:27;9.80;;;8.10;;
50092;SDS011;35974;47.752;10.290;2022-09-25T08:49:23;9.93;;;7.82;;
50092;SDS011;35974;47.752;10.290;2022-09-25T08:52:04;11.07;;;8.75;;
50092;SDS011;35974;47.752;10.290;2022-09-25T08:54:33;9.88;;;8.65;;
50092;SDS011;35974;47.752;10.290;2022-09-25T08:57:11;9.73;;;8.40;;
50092;SDS011;35974;47.752;10.290;2022-09-25T08:59:49;9.80;;;7.45;;
50092;SDS011;35974;47.752;10.290;2022-09-25T09:05:32;9.57;;;8.15;;
50092;SDS011;35974;47.752;10.290;2022-09-25T09:08:06;9.18;;;8.10;;
50092;SDS011;35974;47.752;10.290;2022-09-25T09:16:33;8.15;;;7.00;;
50092;SDS011;35974;47.752;10.290;2022-09-25T09:19:22;7.65;;;6.50;;
50092;SDS011;35974;47.752;10.290;2022-09-25T09:24:44;8.30;;;6.90;;
50092;SDS011;35974;47.752;10.290;2022-09-25T09:35:32;8.45;;;6.10;;
50092;SDS011;35974;47.752;10.290;2022-09-25T09:49:35;6.97;;;6.28;;
50092;SDS011;35974;47.752;10.290;2022-09-25T09:52:09;7.22;;;6.20;;
50092;SDS011;35974;47.752;10.290;2022-09-25T09:57:20;8.82;;;6.47;;
50092;SDS011;35974;47.752;10.290;2022-09-25T10:00:06;8.55;;;7.07;;
50092;SDS011;35974;47.752;10.290;2022-09-25T10:02:47;9.80;;;6.80;;
50092;SDS011;35974;47.752;10.290;2022-09-25T10:05:26;9.18;;;7.30;;
50092;SDS011;35974;47.752;10.290;2022-09-25T10:07:59;8.98;;;7.40;;
50092;SDS011;35974;47.752;10.290;2022-09-25T10:13:01;11.60;;;7.63;;
50092;SDS011;35974;47.752;10.290;2022-09-25T10:15:33;9.98;;;7.93;;
50092;SDS011;35974;47.752;10.290;2022-09-25T10:18:04;11.07;;;7.93;;
50092;SDS011;35974;47.752;10.290;2022-09-25T10:20:42;10.00;;;8.00;;
50092;SDS011;35974;47.752;10.290;2022-09-25T10:31:35;12.20;;;9.05;;
50092;SDS011;35974;47.752;10.290;2022-09-25T10:34:19;10.95;;;8.98;;
50092;SDS011;35974;47.752;10.290;2022-09-25T10:36:49;12.07;;;8.95;;
50092;SDS011;35974;47.752;10.290;2022-09-25T10:45:14;11.80;;;8.98;;
50092;SDS011;35974;47.752;10.290;2022-09-25T10:47:58;13.00;;;9.52;;
50092;SDS011;35974;47.752;10.290;2022-09-25T10:50:43;11.60;;;8.93;;
50092;SDS011;35974;47.752;10.290;2022-09-25T10:53:23;12.98;;;9.02;;
50092;SDS011;35974;47.752;10.290;2022-09-25T10:55:56;13.05;;;9.75;;
50092;SDS011;35974;47.752;10.290;2022-09-25T10:58:38;15.32;;;9.90;;
50092;SDS011;35974;47.752;10.290;2022-09-25T11:01:12;15.55;;;10.63;;
50092;SDS011;35974;47.752;10.290;2022-09-25T11:03:51;12.48;;;9.77;;
50092;SDS011;35974;47.752;10.290;2022-09-25T11:06:28;13.65;;;10.30;;
50092;SDS011;35974;47.752;10.290;2022-09-25T11:11:38;14.77;;;10.55;;
50092;SDS011;35974;47.752;10.290;2022-09-25T11:14:07;13.30;;;9.95;;
50092;SDS011;35974;47.752;10.290;2022-09-25T11:16:52;12.70;;;9.43;;
50092;SDS011;35974;47.752;10.290;2022-09-25T11:19:23;14.30;;;10.02;;
50092;SDS011;35974;47.752;10.290;2022-09-25T11:22:03;13.45;;;10.18;;
50092;SDS011;35974;47.752;10.290;2022-09-25T11:27:35;12.00;;;9.43;;
50092;SDS011;35974;47.752;10.290;2022-09-25T11:32:49;11.82;;;9.02;;
50092;SDS011;35974;47.752;10.290;2022-09-25T11:38:42;10.45;;;7.68;;
50092;SDS011;35974;47.752;10.290;2022-09-25T11:41:43;8.52;;;7.22;;
50092;SDS011;35974;47.752;10.290;2022-09-25T11:49:47;8.32;;;6.55;;
50092;SDS011;35974;47.752;10.290;2022-09-25T11:52:28;9.73;;;6.78;;
50092;SDS011;35974;47.752;10.290;2022-09-25T11:57:35;8.32;;;6.43;;
50092;SDS011;35974;47.752;10.290;2022-09-25T12:08:46;9.32;;;6.63;;
50092;SDS011;35974;47.752;10.290;2022-09-25T12:11:33;7.90;;;6.53;;
50092;SDS011;35974;47.752;10.290;2022-09-25T12:19:42;8.10;;;6.30;;
50092;SDS011;35974;47.752;10.290;2022-09-25T12:22:21;8.10;;;6.85;;
50092;SDS011;35974;47.752;10.290;2022-09-25T12:25:01;9.07;;;6.93;;
50092;SDS011;35974;47.752;10.290;2022-09-25T12:35:48;7.65;;;6.32;;
50092;SDS011;35974;47.752;10.290;2022-09-25T12:41:23;10.45;;;7.00;;
50092;SDS011;35974;47.752;10.290;2022-09-25T12:52:51;7.68;;;5.85;;
50092;SDS011;35974;47.752;10.290;2022-09-25T12:55:24;7.00;;;5.70;;
50092;SDS011;35974;47.752;10.290;2022-09-25T12:58:04;8.85;;;6.13;;
50092;SDS011;35974;47.752;10.290;2022-09-25T13:00:43;9.07;;;6.40;;
50092;SDS011;35974;47.752;10.290;2022-09-25T13:03:19;7.75;;;6.10;;
50092;SDS011;35974;47.752;10.290;2022-09-25T13:09:09;8.25;;;5.70;;
50092;SDS011;35974;47.752;10.290;2022-09-25T13:11:39;9.48;;;6.28;;
50092;SDS011;35974;47.752;10.290;2022-09-25T13:14:33;6.68;;;5.53;;
50092;SDS011;35974;47.752;10.290;2022-09-25T13:17:09;8.65;;;5.68;;
50092;SDS011;35974;47.752;10.290;2022-09-25T13:19:37;7.68;;;5.50;;
50092;SDS011;35974;47.752;10.290;2022-09-25T13:22:20;9.45;;;5.93;;
50092;SDS011;35974;47.752;10.290;2022-09-25T13:27:19;7.45;;;5.13;;
50092;SDS011;35974;47.752;10.290;2022-09-25T13:29:58;8.13;;;5.03;;
50092;SDS011;35974;47.752;10.290;2022-09-25T13:32:27;7.55;;;5.43;;
50092;SDS011;35974;47.752;10.290;2022-09-25T13:35:01;6.68;;;5.40;;
50092;SDS011;35974;47.752;10.290;2022-09-25T13:37:32;7.18;;;5.25;;
50092;SDS011;35974;47.752;10.290;2022-09-25T13:40:14;6.45;;;4.80;;
50092;SDS011;35974;47.752;10.290;2022-09-25T13:43:37;7.03;;;5.10;;
50092;SDS011;35974;47.752;10.290;2022-09-25T13:48:52;5.43;;;4.25;;
50092;SDS011;35974;47.752;10.290;2022-09-25T13:53:52;6.03;;;4.70;;
50092;SDS011;35974;47.752;10.290;2022-09-25T13:59:22;9.18;;;6.90;;
50092;SDS011;35974;47.752;10.290;2022-09-25T14:05:03;9.25;;;7.07;;
50092;SDS011;35974;47.752;10.290;2022-09-25T14:07:30;10.05;;;7.03;;
50092;SDS011;35974;47.752;10.290;2022-09-25T14:09:57;9.20;;;6.80;;
50092;SDS011;35974;47.752;10.290;2022-09-25T14:13:00;8.40;;;6.20;;
50092;SDS011;35974;47.752;10.290;2022-09-25T14:15:21;8.55;;;6.68;;
50092;SDS011;35974;47.752;10.290;2022-09-25T14:21:04;8.48;;;6.90;;
50092;SDS011;35974;47.752;10.290;2022-09-25T14:23:51;9.50;;;6.90;;
50092;SDS011;35974;47.752;10.290;2022-09-25T14:26:21;8.40;;;6.40;;
50092;SDS011;35974;47.752;10.290;2022-09-25T14:28:51;11.13;;;6.70;;
50092;SDS011;35974;47.752;10.290;2022-09-25T14:43:08;9.30;;;6.68;;
50092;SDS011;35974;47.752;10.290;2022-09-25T14:45:45;7.38;;;5.32;;
50092;SDS011;35974;47.752;10.290;2022-09-25T14:48:46;7.47;;;4.53;;
50092;SDS011;35974;47.752;10.290;2022-09-25T14:54:12;5.72;;;3.65;;
50092;SDS011;35974;47.752;10.290;2022-09-25T14:56:44;6.97;;;4.22;;
50092;SDS011;35974;47.752;10.290;2022-09-25T14:59:16;5.22;;;4.30;;
50092;SDS011;35974;47.752;10.290;2022-09-25T15:04:29;5.82;;;4.60;;
50092;SDS011;35974;47.752;10.290;2022-09-25T15:09:34;6.63;;;4.27;;
50092;SDS011;35974;47.752;10.290;2022-09-25T15:14:59;7.15;;;5.30;;
50092;SDS011;35974;47.752;10.290;2022-09-25T15:17:28;7.88;;;6.88;;
50092;SDS011;35974;47.752;10.290;2022-09-25T15:19:57;10.57;;;6.65;;
50092;SDS011;35974;47.752;10.290;2022-09-25T15:22:34;7.82;;;5.82;;
50092;SDS011;35974;47.752;10.290;2022-09-25T15:27:47;7.28;;;4.90;;
50092;SDS011;35974;47.752;10.290;2022-09-25T15:30:15;7.75;;;4.38;;
50092;SDS011;35974;47.752;10.290;2022-09-25T15:32:47;6.70;;;4.10;;
50092;SDS011;35974;47.752;10.290;2022-09-25T15:35:25;4.53;;;3.85;;
50092;SDS011;35974;47.752;10.290;2022-09-25T15:38:00;5.90;;;3.63;;
50092;SDS011;35974;47.752;10.290;2022-09-25T15:40:37;5.88;;;4.05;;
50092;SDS011;35974;47.752;10.290;2022-09-25T15:43:11;6.38;;;4.03;;
50092;SDS011;35974;47.752;10.290;2022-09-25T15:45:41;6.50;;;3.97;;
50092;SDS011;35974;47.752;10.290;2022-09-25T15:48:31;6.38;;;4.13;;
50092;SDS011;35974;47.752;10.290;2022-09-25T15:51:00;7.30;;;4.60;;
50092;SDS011;35974;47.752;10.290;2022-09-25T15:53:30;7.68;;;5.25;;
50092;SDS011;35974;47.752;10.290;2022-09-25T15:56:10;9.73;;;6.85;;
50092;SDS011;35974;47.752;10.290;2022-09-25T15:58:42;7.93;;;4.50;;
50092;SDS011;35974;47.752;10.290;2022-09-25T16:01:11;5.70;;;4.22;;
50092;SDS011;35974;47.752;10.290;2022-09-25T16:03:59;5.38;;;4.30;;
50092;SDS011;35974;47.752;10.290;2022-09-25T16:06:45;5.60;;;4.82;;
50092;SDS011;35974;47.752;10.290;2022-09-25T16:15:34;5.05;;;3.30;;
50092;SDS011;35974;47.752;10.290;2022-09-25T16:17:54;2.97;;;2.40;;
50092;SDS011;35974;47.752;10.290;2022-09-25T16:20:40;2.30;;;2.03;;
50092;SDS011;35974;47.752;10.290;2022-09-25T16:23:16;3.00;;;1.90;;
50092;SDS011;35974;47.752;10.290;2022-09-25T16:25:53;3.75;;;2.30;;
50092;SDS011;35974;47.752;10.290;2022-09-25T16:28:21;3.30;;;2.42;;
50092;SDS011;35974;47.752;10.290;2022-09-25T16:33:27;5.07;;;3.50;;
50092;SDS011;35974;47.752;10.290;2022-09-25T16:36:06;6.30;;;3.75;;
50092;SDS011;35974;47.752;10.290;2022-09-25T16:39:09;5.88;;;3.60;;
50092;SDS011;35974;47.752;10.290;2022-09-25T16:41:42;6.13;;;4.00;;
50092;SDS011;35974;47.752;10.290;2022-09-25T16:44:14;4.88;;;3.45;;
50092;SDS011;35974;47.752;10.290;2022-09-25T16:46:41;4.30;;;2.80;;
50092;SDS011;35974;47.752;10.290;2022-09-25T16:49:09;4.05;;;3.08;;
50092;SDS011;35974;47.752;10.290;2022-09-25T16:51:38;4.32;;;3.35;;
50092;SDS011;35974;47.752;10.290;2022-09-25T16:54:17;3.90;;;3.38;;
50092;SDS011;35974;47.752;10.290;2022-09-25T16:56:46;5.85;;;3.72;;
50092;SDS011;35974;47.752;10.290;2022-09-25T17:01:42;4.72;;;3.70;;
50092;SDS011;35974;47.752;10.290;2022-09-25T17:04:11;9.23;;;6.25;;
50092;SDS011;35974;47.752;10.290;2022-09-25T17:06:38;7.72;;;5.47;;
50092;SDS011;35974;47.752;10.290;2022-09-25T17:09:17;7.78;;;3.78;;
50092;SDS011;35974;47.752;10.290;2022-09-25T17:11:45;4.32;;;3.42;;
50092;SDS011;35974;47.752;10.290;2022-09-25T17:14:20;6.28;;;3.50;;
50092;SDS011;35974;47.752;10.290;2022-09-25T17:19:23;5.40;;;2.42;;
50092;SDS011;35974;47.752;10.290;2022-09-25T17:21:50;4.30;;;2.83;;
50092;SDS011;35974;47.752;10.290;2022-09-25T17:24:18;3.35;;;2.53;;
50092;SDS011;35974;47.752;10.290;2022-09-25T17:26:51;2.58;;;2.03;;
50092;SDS011;35974;47.752;10.290;2022-09-25T17:29:19;3.28;;;2.30;;
50092;SDS011;35974;47.752;10.290;2022-09-25T17:31:47;2.80;;;2.10;;
50092;SDS011;35974;47.752;10.290;2022-09-25T17:34:22;3.03;;;1.38;;
50092;SDS011;35974;47.752;10.290;2022-09-25T17:36:54;1.95;;;1.30;;
50092;SDS011;35974;47.752;10.290;2022-09-25T17:39:22;4.70;;;1.50;;
50092;SDS011;35974;47.752;10.290;2022-09-25T17:44:19;3.75;;;1.25;;
50092;SDS011;35974;47.752;10.290;2022-09-25T17:46:49;4.13;;;1.60;;
50092;SDS011;35974;47.752;10.290;2022-09-25T17:49:16;3.95;;;1.70;;
50092;SDS011;35974;47.752;10.290;2022-09-25T17:51:43;2.00;;;1.50;;
50092;SDS011;35974;47.752;10.290;2022-09-25T17:54:09;3.65;;;1.63;;
50092;SDS011;35974;47.752;10.290;2022-09-25T17:56:38;6.93;;;4.00;;
50092;SDS011;35974;47.752;10.290;2022-09-25T17:59:06;33.35;;;15.85;;
50092;SDS011;35974;47.752;10.290;2022-09-25T18:01:34;24.10;;;11.48;;
50092;SDS011;35974;47.752;10.290;2022-09-25T18:04:20;27.00;;;13.63;;
50092;SDS011;35974;47.752;10.290;2022-09-25T18:06:49;16.25;;;9.05;;
50092;SDS011;35974;47.752;10.290;2022-09-25T18:09:16;11.18;;;6.72;;
50092;SDS011;35974;47.752;10.290;2022-09-25T18:11:48;14.60;;;10.05;;
50092;SDS011;35974;47.752;10.290;2022-09-25T18:14:15;29.35;;;26.10;;
50092;SDS011;35974;47.752;10.290;2022-09-25T18:16:42;35.47;;;30.30;;
50092;SDS011;35974;47.752;10.290;2022-09-25T18:19:14;8.27;;;7.30;;
50092;SDS011;35974;47.752;10.290;2022-09-25T18:22:00;6.68;;;4.68;;
50092;SDS011;35974;47.752;10.290;2022-09-25T18:24:42;8.68;;;5.20;;
50092;SDS011;35974;47.752;10.290;2022-09-25T18:27:10;8.48;;;5.32;;